Time;durP1;ratioP1;P1;durP2;ratioP2;P2;SDS_P1;SDS_P2;PMS_P1;PMS_P2;Temp;Humidity;BMP_temperature;BMP_pressure;BME280_temperature;BME280_humidity;BME280_pressure;Samples;Min_cycle;Max_cycle;Signal;HPM_P1;HPM_P2
2022/08/01 00:01:00;;;;;;;0.40;0.30;;;20.60;99.90;;;;;;4987895;28;20778;-67
2022/08/01 00:03:26;;;;;;;0.40;0.20;;;20.50;99.90;;;;;;4971482;28;20410;-68
2022/08/01 00:05:52;;;;;;;0.40;0.20;;;20.50;99.90;;;;;;4987686;28;20510;-68
2022/08/01 00:08:18;;;;;;;0.40;0.30;;;20.60;99.90;;;;;;4972129;28;20403;-68
2022/08/01 00:10:44;;;;;;;0.40;0.20;;;20.50;99.90;;;;;;4987245;28;20790;-68
2022/08/01 00:13:09;;;;;;;0.50;0.40;;;20.50;99.90;;;;;;4971308;28;20406;-68
2022/08/01 00:15:35;;;;;;;0.40;0.20;;;20.40;99.90;;;;;;4974496;28;20863;-68
2022/08/01 00:18:01;;;;;;;1.10;1.00;;;20.50;99.90;;;;;;4974980;28;20402;-68
2022/08/01 00:20:27;;;;;;;0.40;0.20;;;20.50;99.90;;;;;;4974900;28;20939;-68
2022/08/01 00:22:53;;;;;;;0.40;0.30;;;20.40;99.90;;;;;;4974563;28;20539;-68
2022/08/01 00:25:19;;;;;;;0.40;0.30;;;20.20;99.90;;;;;;4975130;28;20407;-68
2022/08/01 00:27:44;;;;;;;0.50;0.40;;;20.20;99.90;;;;;;4974514;28;20755;-68
2022/08/01 00:30:10;;;;;;;0.40;0.30;;;20.20;99.90;;;;;;4974390;28;20395;-67
2022/08/01 00:32:36;;;;;;;0.40;0.30;;;20.10;99.90;;;;;;4990434;28;20391;-68
2022/08/01 00:35:01;;;;;;;0.40;0.30;;;20.00;99.90;;;;;;4990941;28;20874;-68
2022/08/01 00:37:27;;;;;;;0.40;0.30;;;20.00;99.90;;;;;;4974968;28;20406;-68
2022/08/01 00:39:53;;;;;;;0.40;0.27;;;20.00;99.90;;;;;;4974396;28;20405;-68
2022/08/01 00:42:19;;;;;;;0.40;0.20;;;20.00;99.90;;;;;;4974471;28;20421;-68
2022/08/01 00:44:45;;;;;;;0.40;0.30;;;20.00;99.90;;;;;;4974052;28;20419;-67
2022/08/01 00:47:10;;;;;;;0.40;0.20;;;20.00;99.90;;;;;;4973978;28;20430;-68
2022/08/01 00:49:36;;;;;;;0.40;0.30;;;19.90;99.90;;;;;;4974257;28;20406;-68
2022/08/01 00:52:04;;;;;;;0.40;0.20;;;19.80;99.90;;;;;;4965889;28;20388;-68
2022/08/01 00:54:30;;;;;;;0.40;0.30;;;19.70;99.90;;;;;;4955363;28;20419;-68
2022/08/01 00:56:57;;;;;;;0.47;0.32;;;19.80;99.90;;;;;;4967711;28;20516;-68
2022/08/01 00:59:23;;;;;;;0.40;0.20;;;19.70;99.90;;;;;;4973879;28;20455;-68
2022/08/01 01:01:50;;;;;;;0.40;0.20;;;19.60;99.90;;;;;;4973921;28;20425;-67
2022/08/01 01:04:17;;;;;;;0.40;0.30;;;19.70;99.90;;;;;;4974404;28;20460;-68
2022/08/01 01:06:49;;;;;;;0.40;0.20;;;19.60;99.90;;;;;;4989954;28;20778;-69
2022/08/01 01:09:42;;;;;;;0.40;0.30;;;19.60;99.90;;;;;;4990117;28;20415;-68
2022/08/01 01:12:31;;;;;;;0.40;0.30;;;19.60;99.90;;;;;;4984177;28;20446;-68
2022/08/01 01:15:22;;;;;;;0.40;0.25;;;19.50;99.90;;;;;;5035392;28;20909;-68
2022/08/01 01:18:00;;;;;;;0.40;0.30;;;19.40;99.90;;;;;;5035365;28;20398;-68
2022/08/01 01:20:36;;;;;;;0.40;0.30;;;19.40;99.90;;;;;;5026628;28;20414;-68
2022/08/01 01:23:20;;;;;;;0.40;0.20;;;19.30;99.90;;;;;;4990701;28;20486;-68
2022/08/01 01:26:04;;;;;;;0.40;0.30;;;19.20;99.90;;;;;;4989714;28;20454;-68
2022/08/01 01:28:43;;;;;;;0.40;0.20;;;19.10;99.90;;;;;;4990035;28;20487;-67
2022/08/01 01:31:11;;;;;;;0.40;0.30;;;19.10;99.90;;;;;;4991900;28;20428;-68
2022/08/01 01:33:39;;;;;;;0.40;0.30;;;19.10;99.90;;;;;;4989985;28;20383;-68
2022/08/01 01:36:09;;;;;;;0.70;0.60;;;19.10;99.90;;;;;;4973619;28;20775;-68
2022/08/01 01:38:41;;;;;;;0.40;0.20;;;19.00;99.90;;;;;;4989839;28;20391;-68
2022/08/01 01:41:10;;;;;;;0.40;0.30;;;18.90;99.90;;;;;;4989544;28;20398;-68
2022/08/01 01:43:38;;;;;;;0.40;0.30;;;18.80;99.90;;;;;;4974143;28;20426;-68
2022/08/01 01:46:05;;;;;;;0.40;0.30;;;18.90;99.90;;;;;;4973618;28;20982;-68
2022/08/01 01:48:32;;;;;;;0.40;0.30;;;18.90;99.90;;;;;;4973904;28;20398;-68
2022/08/01 01:51:00;;;;;;;1.00;0.70;;;18.80;99.90;;;;;;4988680;28;20514;-68
2022/08/01 01:53:28;;;;;;;0.40;0.20;;;18.90;99.90;;;;;;4935356;28;20406;-68
2022/08/01 01:55:56;;;;;;;0.40;0.20;;;19.00;99.90;;;;;;4950499;28;20430;-68
2022/08/01 01:58:23;;;;;;;0.40;0.20;;;19.00;99.90;;;;;;4966962;28;20490;-68
2022/08/01 02:00:53;;;;;;;0.40;0.20;;;18.90;99.90;;;;;;4966391;28;20460;-68
2022/08/01 02:03:20;;;;;;;0.40;0.30;;;18.80;99.90;;;;;;4987547;28;20960;-68
2022/08/01 02:05:47;;;;;;;0.50;0.40;;;18.90;99.90;;;;;;4973213;28;20451;-68
2022/08/01 02:08:15;;;;;;;0.40;0.30;;;18.90;99.90;;;;;;4989136;28;20398;-68
2022/08/01 02:11:17;;;;;;;0.40;0.40;;;18.80;99.90;;;;;;4989447;28;20433;-68
2022/08/01 02:13:30;;;;;;;0.40;0.40;;;18.70;99.90;;;;;;4989479;28;20407;-68
2022/08/01 02:15:56;;;;;;;0.40;0.30;;;18.70;99.90;;;;;;4972977;28;20503;-68
2022/08/01 02:18:21;;;;;;;0.40;0.30;;;18.60;99.90;;;;;;4972765;28;20504;-68
2022/08/01 02:20:49;;;;;;;0.40;0.30;;;18.50;99.90;;;;;;4988763;28;20390;-68
2022/08/01 02:23:15;;;;;;;0.40;0.30;;;18.40;99.90;;;;;;4974429;28;20410;-68
2022/08/01 02:25:52;;;;;;;0.40;0.20;;;18.50;99.90;;;;;;4972740;28;20505;-68
2022/08/01 02:28:25;;;;;;;0.40;0.30;;;18.30;99.90;;;;;;4989175;28;20465;-68
2022/08/01 02:30:50;;;;;;;0.50;0.40;;;18.30;99.90;;;;;;4988715;28;20486;-68
2022/08/01 02:33:24;;;;;;;0.40;0.30;;;18.20;99.90;;;;;;4988581;28;20477;-68
2022/08/01 02:35:53;;;;;;;0.40;0.30;;;18.20;99.90;;;;;;4972993;28;20455;-68
2022/08/01 02:38:24;;;;;;;0.50;0.50;;;18.30;99.90;;;;;;4988462;28;20383;-68
2022/08/01 02:40:52;;;;;;;0.40;0.33;;;18.20;99.90;;;;;;4988709;28;20850;-68
2022/08/01 02:43:20;;;;;;;0.40;0.20;;;18.30;99.90;;;;;;4988815;28;20398;-68
2022/08/01 02:45:52;;;;;;;0.40;0.20;;;18.20;99.90;;;;;;4972515;28;20538;-68
2022/08/01 02:48:20;;;;;;;0.40;0.20;;;18.30;99.90;;;;;;4988632;28;20452;-68
2022/08/01 02:50:49;;;;;;;0.40;0.30;;;18.30;99.90;;;;;;4972642;28;20442;-68
2022/08/01 02:53:18;;;;;;;2.90;1.60;;;18.20;99.90;;;;;;4954250;28;20447;-68
2022/08/01 02:55:47;;;;;;;0.50;0.50;;;18.30;99.90;;;;;;4975538;28;20455;-68
2022/08/01 02:58:16;;;;;;;0.40;0.30;;;18.20;99.90;;;;;;4988598;28;20391;-68
2022/08/01 03:00:44;;;;;;;0.40;0.30;;;18.10;99.90;;;;;;4988759;28;20403;-68
2022/08/01 03:03:11;;;;;;;0.40;0.30;;;18.10;99.90;;;;;;4988734;28;20395;-68
2022/08/01 03:05:39;;;;;;;0.40;0.30;;;18.00;99.90;;;;;;4988423;28;20778;-68
2022/08/01 03:08:07;;;;;;;0.40;0.20;;;18.10;99.90;;;;;;4972156;28;20440;-68
2022/08/01 03:10:37;;;;;;;0.50;0.40;;;18.00;99.90;;;;;;4988610;28;20390;-68
2022/08/01 03:13:06;;;;;;;0.40;0.20;;;18.00;99.90;;;;;;4988001;28;20391;-68
2022/08/01 03:15:35;;;;;;;0.40;0.20;;;18.00;99.90;;;;;;4988553;28;20816;-68
2022/08/01 03:18:03;;;;;;;0.40;0.30;;;18.00;99.90;;;;;;4987858;28;20406;-68
2022/08/01 03:20:30;;;;;;;0.40;0.30;;;17.90;99.90;;;;;;4972266;28;20390;-68
2022/08/01 03:22:59;;;;;;;0.40;0.30;;;17.80;99.90;;;;;;4971802;28;20403;-68
2022/08/01 03:25:27;;;;;;;0.40;0.25;;;17.90;99.90;;;;;;4971415;28;20430;-68
2022/08/01 03:27:56;;;;;;;0.40;0.30;;;17.80;99.90;;;;;;4987834;28;20438;-68
2022/08/01 03:30:28;;;;;;;0.40;0.30;;;17.80;99.90;;;;;;4988307;28;20474;-68
2022/08/01 03:32:54;;;;;;;0.40;0.20;;;17.80;99.90;;;;;;4972186;28;20403;-68
2022/08/01 03:35:22;;;;;;;0.50;0.50;;;17.80;99.90;;;;;;4971984;28;20839;-68
2022/08/01 03:37:51;;;;;;;0.40;0.30;;;17.70;99.90;;;;;;4988168;28;20492;-68
2022/08/01 03:40:25;;;;;;;0.40;0.20;;;17.70;99.90;;;;;;4988555;28;20431;-68
2022/08/01 03:42:57;;;;;;;0.40;0.30;;;17.60;99.90;;;;;;4988183;28;20865;-68
2022/08/01 03:45:27;;;;;;;0.40;0.30;;;17.60;99.90;;;;;;4987588;28;20418;-68
2022/08/01 03:48:24;;;;;;;0.40;0.30;;;17.60;99.90;;;;;;4981894;28;20405;-68
2022/08/01 03:50:52;;;;;;;0.40;0.30;;;17.50;99.90;;;;;;4984849;28;20411;-67
2022/08/01 03:53:24;;;;;;;1.40;0.75;;;17.60;99.90;;;;;;4970302;28;20450;-68
2022/08/01 03:55:51;;;;;;;0.40;0.40;;;17.70;99.90;;;;;;4971222;28;20425;-68
2022/08/01 03:58:18;;;;;;;0.40;0.20;;;17.50;99.90;;;;;;4988087;28;20395;-67
2022/08/01 04:00:45;;;;;;;0.40;0.20;;;17.60;99.90;;;;;;4971845;28;20789;-67
2022/08/01 04:03:13;;;;;;;0.40;0.20;;;17.50;99.90;;;;;;4971967;28;20481;-67
2022/08/01 04:05:42;;;;;;;0.70;0.50;;;17.40;99.90;;;;;;4971913;28;20387;-67
2022/08/01 04:08:08;;;;;;;0.40;0.30;;;17.50;99.90;;;;;;4987587;28;20497;-67
2022/08/01 04:10:34;;;;;;;0.40;0.20;;;17.50;99.90;;;;;;4971968;28;20471;-67
2022/08/01 04:13:01;;;;;;;0.40;0.30;;;17.50;99.90;;;;;;4971768;28;20391;-67
2022/08/01 04:15:27;;;;;;;0.40;0.30;;;17.60;99.90;;;;;;4971820;28;20437;-67
2022/08/01 04:17:53;;;;;;;0.40;0.30;;;17.60;99.90;;;;;;4987716;28;20398;-67
2022/08/01 04:20:19;;;;;;;0.40;0.40;;;17.50;99.90;;;;;;4971985;28;20907;-67
2022/08/01 04:22:45;;;;;;;0.40;0.30;;;17.50;99.90;;;;;;4971735;28;20395;-67
2022/08/01 04:25:39;;;;;;;0.40;0.30;;;17.50;99.90;;;;;;4987268;28;20393;-67
2022/08/01 04:28:10;;;;;;;0.40;0.20;;;17.50;99.90;;;;;;4971430;28;20415;-67
2022/08/01 04:30:39;;;;;;;0.40;0.22;;;17.50;99.90;;;;;;4981388;28;20759;-66
2022/08/01 04:33:08;;;;;;;0.40;0.30;;;17.50;99.90;;;;;;4981326;28;20740;-67
2022/08/01 04:35:36;;;;;;;0.40;0.20;;;17.40;99.90;;;;;;4965104;28;20406;-67
2022/08/01 04:38:03;;;;;;;0.40;0.30;;;17.50;99.90;;;;;;4964835;28;20827;-67
2022/08/01 04:40:30;;;;;;;0.80;0.80;;;17.50;99.90;;;;;;4968657;28;20452;-68
2022/08/01 04:42:56;;;;;;;0.40;0.30;;;17.50;99.90;;;;;;4981212;28;20413;-67
2022/08/01 04:45:23;;;;;;;0.40;0.30;;;17.60;99.90;;;;;;4980950;28;20422;-67
2022/08/01 04:47:49;;;;;;;0.40;0.30;;;17.50;99.90;;;;;;4964986;28;20823;-67
2022/08/01 04:50:15;;;;;;;0.40;0.20;;;17.50;99.90;;;;;;4995604;28;20406;-67
2022/08/01 04:52:41;;;;;;;0.40;0.30;;;17.50;99.90;;;;;;4965596;28;20983;-67
2022/08/01 04:55:08;;;;;;;0.40;0.30;;;17.60;99.90;;;;;;4971189;28;20402;-67
2022/08/01 04:57:40;;;;;;;0.40;0.25;;;17.70;99.90;;;;;;4971663;28;20414;-67
2022/08/01 05:00:06;;;;;;;0.60;0.60;;;17.80;99.90;;;;;;4988653;28;20399;-67
2022/08/01 05:02:32;;;;;;;0.40;0.20;;;17.70;99.90;;;;;;4976679;28;20506;-67
2022/08/01 05:04:58;;;;;;;0.40;0.30;;;17.70;99.90;;;;;;4986662;28;20480;-68
2022/08/01 05:07:26;;;;;;;0.40;0.30;;;17.70;99.90;;;;;;4984168;28;20420;-67
2022/08/01 05:09:53;;;;;;;0.40;0.20;;;17.70;99.90;;;;;;4969618;28;20408;-67
2022/08/01 05:12:21;;;;;;;0.40;0.30;;;17.70;99.90;;;;;;4977993;28;20500;-68
2022/08/01 05:14:52;;;;;;;0.40;0.30;;;17.90;99.90;;;;;;4977776;28;20445;-67
2022/08/01 05:17:18;;;;;;;0.40;0.30;;;17.90;99.90;;;;;;4988271;28;20402;-68
2022/08/01 05:19:46;;;;;;;2.40;0.93;;;17.90;99.90;;;;;;4961647;28;20404;-68
2022/08/01 05:22:12;;;;;;;1.00;0.90;;;17.90;99.90;;;;;;5022000;28;20400;-68
2022/08/01 05:24:39;;;;;;;0.40;0.20;;;18.00;99.90;;;;;;4970211;28;20483;-67
2022/08/01 05:27:07;;;;;;;0.40;0.22;;;18.00;99.90;;;;;;4973999;28;20448;-67
2022/08/01 05:29:34;;;;;;;0.40;0.30;;;18.10;99.90;;;;;;4959264;28;21065;-67
2022/08/01 05:32:00;;;;;;;0.40;0.20;;;18.20;99.90;;;;;;4960740;28;20800;-68
2022/08/01 05:34:26;;;;;;;0.40;0.30;;;18.40;99.90;;;;;;4956462;28;20405;-68
2022/08/01 05:36:52;;;;;;;0.40;0.30;;;18.50;99.90;;;;;;4970089;28;20475;-68
2022/08/01 05:39:18;;;;;;;0.40;0.28;;;18.60;99.90;;;;;;4964963;28;20405;-68
2022/08/01 05:41:44;;;;;;;0.40;0.20;;;18.60;99.90;;;;;;4980125;28;21083;-68
2022/08/01 05:44:10;;;;;;;0.50;0.50;;;18.70;99.90;;;;;;4990287;28;21162;-68
2022/08/01 05:46:37;;;;;;;0.40;0.30;;;18.80;99.90;;;;;;4974259;28;21038;-68
2022/08/01 05:49:05;;;;;;;0.40;0.20;;;18.80;99.90;;;;;;4956052;28;20458;-68
2022/08/01 05:51:32;;;;;;;0.40;0.30;;;18.90;99.90;;;;;;4958515;28;20422;-68
2022/08/01 05:53:58;;;;;;;0.40;0.30;;;19.00;99.90;;;;;;4960501;28;20426;-67
2022/08/01 05:56:24;;;;;;;0.40;0.30;;;19.10;99.90;;;;;;4973659;28;20899;-68
2022/08/01 05:58:51;;;;;;;0.40;0.20;;;19.20;99.90;;;;;;4954034;28;20409;-68
2022/08/01 06:01:18;;;;;;;0.40;0.20;;;19.40;99.90;;;;;;4967015;28;20401;-67
2022/08/01 06:03:44;;;;;;;0.40;0.30;;;19.50;99.90;;;;;;4969970;28;20416;-67
2022/08/01 06:06:11;;;;;;;0.60;0.60;;;19.70;99.90;;;;;;4952142;28;20745;-69
2022/08/01 06:08:36;;;;;;;0.40;0.30;;;19.70;99.90;;;;;;4960407;28;20409;-69
2022/08/01 06:11:03;;;;;;;0.40;0.40;;;19.80;99.90;;;;;;4955499;28;20413;-69
2022/08/01 06:13:29;;;;;;;0.45;0.25;;;19.90;99.90;;;;;;4999283;28;20436;-69
2022/08/01 06:15:55;;;;;;;0.40;0.20;;;20.00;99.90;;;;;;4952826;28;20427;-69
2022/08/01 06:18:21;;;;;;;0.70;0.70;;;20.00;99.90;;;;;;4955059;28;20965;-69
2022/08/01 06:20:48;;;;;;;0.40;0.30;;;20.00;99.90;;;;;;4970638;28;20438;-69
2022/08/01 06:23:15;;;;;;;0.40;0.30;;;20.20;99.90;;;;;;4958615;28;20420;-69
2022/08/01 06:25:42;;;;;;;0.40;0.20;;;20.20;99.90;;;;;;4953919;28;20509;-69
2022/08/01 06:28:08;;;;;;;0.40;0.30;;;20.30;99.90;;;;;;4997303;28;20415;-69
2022/08/01 06:30:34;;;;;;;0.40;0.30;;;20.40;99.90;;;;;;4981745;28;20400;-69
2022/08/01 06:32:59;;;;;;;0.40;0.30;;;20.40;99.90;;;;;;4980199;28;20733;-69
2022/08/01 06:35:29;;;;;;;0.50;0.40;;;20.60;99.90;;;;;;4968539;28;20499;-69
2022/08/01 06:37:55;;;;;;;0.50;0.40;;;20.70;99.90;;;;;;4953494;28;20412;-69
2022/08/01 06:40:21;;;;;;;0.40;0.20;;;20.80;99.90;;;;;;4955029;28;20440;-69
2022/08/01 06:42:47;;;;;;;0.40;0.30;;;20.90;99.90;;;;;;4967962;28;20447;-69
2022/08/01 06:45:13;;;;;;;0.40;0.20;;;20.90;99.90;;;;;;4952422;28;20896;-69
2022/08/01 06:47:40;;;;;;;0.40;0.30;;;21.00;99.90;;;;;;4951101;28;20430;-69
2022/08/01 06:50:08;;;;;;;0.40;0.30;;;21.00;99.90;;;;;;4971554;28;20458;-69
2022/08/01 06:52:34;;;;;;;0.40;0.30;;;21.10;99.90;;;;;;4967670;28;20404;-69
2022/08/01 06:55:00;;;;;;;0.40;0.20;;;21.20;99.90;;;;;;4958052;28;20396;-69
2022/08/01 06:57:26;;;;;;;0.60;0.50;;;21.30;99.90;;;;;;4953481;28;20907;-69
2022/08/01 06:59:52;;;;;;;0.40;0.30;;;21.40;99.90;;;;;;4956621;28;20432;-69
2022/08/01 07:02:19;;;;;;;0.40;0.30;;;21.50;99.90;;;;;;4967514;28;20408;-68
2022/08/01 07:04:45;;;;;;;0.40;0.30;;;21.80;99.90;;;;;;4949787;28;20403;-68
2022/08/01 07:07:11;;;;;;;0.40;0.30;;;22.10;99.90;;;;;;4989992;28;20450;-69
2022/08/01 07:09:40;;;;;;;0.80;0.60;;;22.30;99.90;;;;;;4970061;28;20961;-69
2022/08/01 07:12:06;;;;;;;0.40;0.20;;;22.30;99.90;;;;;;4949615;28;20436;-69
2022/08/01 07:14:32;;;;;;;0.40;0.30;;;22.20;99.90;;;;;;4980029;28;20410;-69
2022/08/01 07:16:57;;;;;;;0.52;0.45;;;22.40;99.90;;;;;;4984058;28;20413;-70
2022/08/01 07:19:23;;;;;;;0.40;0.30;;;22.60;99.90;;;;;;4990431;28;20422;-69
2022/08/01 07:21:49;;;;;;;0.40;0.20;;;22.70;99.90;;;;;;4965860;28;20540;-67
2022/08/01 07:24:16;;;;;;;0.40;0.30;;;22.80;99.90;;;;;;4982159;28;20536;-67
2022/08/01 07:26:43;;;;;;;0.40;0.30;;;22.70;99.90;;;;;;4972545;28;20509;-67
2022/08/01 07:29:09;;;;;;;0.40;0.30;;;22.80;99.90;;;;;;4956961;28;20479;-67
2022/08/01 07:31:35;;;;;;;0.40;0.30;;;22.90;99.90;;;;;;4971492;28;20407;-67
2022/08/01 07:34:01;;;;;;;0.80;0.60;;;23.20;99.90;;;;;;4965841;28;20460;-67
2022/08/01 07:36:27;;;;;;;0.90;0.50;;;23.20;99.50;;;;;;4965758;28;20406;-67
2022/08/01 07:38:53;;;;;;;0.40;0.20;;;23.30;99.50;;;;;;4974353;28;20402;-67
2022/08/01 07:41:19;;;;;;;0.40;0.20;;;23.30;98.90;;;;;;4992043;28;20422;-68
2022/08/01 07:43:45;;;;;;;0.40;0.30;;;23.30;99.10;;;;;;4973448;28;20422;-67
2022/08/01 07:46:10;;;;;;;0.40;0.20;;;23.30;98.60;;;;;;4976650;28;20430;-67
2022/08/01 07:48:36;;;;;;;0.40;0.30;;;23.50;98.40;;;;;;4968026;28;20442;-68
2022/08/01 07:51:02;;;;;;;0.50;0.50;;;23.40;97.80;;;;;;4988826;28;20408;-67
2022/08/01 07:53:28;;;;;;;0.40;0.20;;;23.50;97.70;;;;;;4954220;28;20511;-68
2022/08/01 07:55:54;;;;;;;0.40;0.30;;;23.50;97.80;;;;;;4972504;28;20472;-68
2022/08/01 07:58:20;;;;;;;0.40;0.30;;;23.50;98.00;;;;;;4968334;28;20416;-69
2022/08/01 08:00:46;;;;;;;0.40;0.30;;;23.70;97.20;;;;;;4951408;28;20408;-68
2022/08/01 08:03:11;;;;;;;0.40;0.40;;;23.80;96.30;;;;;;4950733;28;20513;-68
2022/08/01 08:05:37;;;;;;;0.40;0.30;;;23.80;95.70;;;;;;4967409;28;20403;-68
2022/08/01 08:08:10;;;;;;;0.40;0.30;;;23.90;96.10;;;;;;4964839;28;20409;-69
2022/08/01 08:10:35;;;;;;;0.40;0.30;;;23.90;95.60;;;;;;4966569;28;20503;-68
2022/08/01 08:13:01;;;;;;;0.40;0.30;;;24.10;95.80;;;;;;4967639;28;20489;-68
2022/08/01 08:15:28;;;;;;;0.40;0.30;;;24.10;95.10;;;;;;4981119;28;20421;-68
2022/08/01 08:17:54;;;;;;;0.40;0.40;;;24.10;94.50;;;;;;4996986;28;20403;-71
2022/08/01 08:20:24;;;;;;;0.50;0.50;;;24.30;95.10;;;;;;4971154;28;20960;-69
2022/08/01 08:22:51;;;;;;;0.40;0.30;;;24.20;95.00;;;;;;4987880;28;20387;-69
2022/08/01 08:25:18;;;;;;;0.40;0.30;;;24.20;94.70;;;;;;4971389;28;20744;-68
2022/08/01 08:27:45;;;;;;;1.00;0.80;;;24.30;94.90;;;;;;4987467;28;20422;-68
2022/08/01 08:30:11;;;;;;;0.40;0.20;;;24.40;93.60;;;;;;4987603;28;20871;-69
2022/08/01 08:32:38;;;;;;;0.40;0.20;;;24.60;93.80;;;;;;4988029;28;20444;-69
2022/08/01 08:35:05;;;;;;;0.40;0.30;;;24.50;93.70;;;;;;4972647;28;20438;-70
2022/08/01 08:37:31;;;;;;;0.40;0.30;;;24.70;92.80;;;;;;4975210;28;20427;-69
2022/08/01 08:39:57;;;;;;;0.40;0.30;;;24.70;93.00;;;;;;4975153;28;20407;-68
2022/08/01 08:42:23;;;;;;;4.10;0.80;;;24.70;92.80;;;;;;4970939;28;20829;-68
2022/08/01 08:44:49;;;;;;;0.50;0.45;;;24.70;92.50;;;;;;4966558;28;20415;-68
2022/08/01 08:47:17;;;;;;;0.90;0.70;;;25.00;91.70;;;;;;4964460;28;20420;-68
2022/08/01 08:49:44;;;;;;;0.40;0.20;;;24.90;91.70;;;;;;4969180;28;20395;-69
2022/08/01 08:52:10;;;;;;;0.40;0.20;;;25.00;91.70;;;;;;5001672;28;20409;-69
2022/08/01 08:54:38;;;;;;;0.57;0.47;;;25.10;91.50;;;;;;4972102;28;20937;-68
2022/08/01 08:57:05;;;;;;;0.40;0.20;;;25.20;90.60;;;;;;5003185;28;20406;-70
2022/08/01 08:59:31;;;;;;;0.40;0.30;;;25.20;91.10;;;;;;4987776;28;20392;-68
2022/08/01 09:01:58;;;;;;;0.70;0.60;;;25.30;91.00;;;;;;5007751;28;20492;-68
2022/08/01 09:04:26;;;;;;;0.40;0.30;;;25.30;91.00;;;;;;4961438;28;20437;-68
2022/08/01 09:06:52;;;;;;;0.50;0.30;;;25.20;90.50;;;;;;4983974;28;20475;-68
2022/08/01 09:09:19;;;;;;;0.40;0.20;;;25.20;91.10;;;;;;4977360;28;20395;-69
2022/08/01 09:11:44;;;;;;;0.40;0.20;;;25.30;89.20;;;;;;5000487;28;20751;-69
2022/08/01 09:14:13;;;;;;;0.40;0.30;;;25.30;90.00;;;;;;4974056;28;20426;-68
2022/08/01 09:16:45;;;;;;;0.40;0.30;;;25.30;88.80;;;;;;4990729;28;20782;-68
2022/08/01 09:19:16;;;;;;;0.40;0.30;;;25.70;88.20;;;;;;4974410;28;20810;-69
2022/08/01 09:21:59;;;;;;;0.40;0.30;;;25.70;89.00;;;;;;4990657;28;20468;-69
2022/08/01 09:24:26;;;;;;;0.40;0.30;;;25.60;86.10;;;;;;4974011;28;20761;-69
2022/08/01 09:26:52;;;;;;;0.40;0.30;;;25.60;86.00;;;;;;5000853;28;20419;-68
2022/08/01 09:29:22;;;;;;;0.40;0.30;;;25.70;85.10;;;;;;4974291;28;20439;-70
2022/08/01 09:31:49;;;;;;;0.40;0.20;;;25.90;84.30;;;;;;4990377;28;20954;-68
2022/08/01 09:34:23;;;;;;;0.40;0.30;;;25.70;85.20;;;;;;4973709;28;20851;-69
2022/08/01 09:36:57;;;;;;;0.40;0.30;;;25.70;85.80;;;;;;4975223;28;20403;-70
2022/08/01 09:39:26;;;;;;;0.40;0.30;;;25.90;84.40;;;;;;4971302;28;20563;-69
2022/08/01 09:41:57;;;;;;;0.40;0.30;;;25.90;83.40;;;;;;4971925;28;20933;-68
2022/08/01 09:44:39;;;;;;;0.40;0.20;;;25.80;84.60;;;;;;4953376;28;20939;-70
2022/08/01 09:47:05;;;;;;;0.40;0.30;;;26.00;84.70;;;;;;5010964;28;20435;-68
2022/08/01 09:49:34;;;;;;;0.40;0.20;;;26.30;82.90;;;;;;4953311;28;20428;-67
2022/08/01 09:52:20;;;;;;;0.40;0.30;;;26.30;82.60;;;;;;4990902;28;20404;-68
2022/08/01 09:54:56;;;;;;;0.40;0.20;;;26.10;81.40;;;;;;4969945;28;20431;-68
2022/08/01 09:57:22;;;;;;;0.50;0.50;;;26.30;81.00;;;;;;4983401;28;20734;-68
2022/08/01 09:59:50;;;;;;;0.40;0.30;;;26.20;80.40;;;;;;5000059;28;20402;-69
2022/08/01 10:02:36;;;;;;;0.40;0.30;;;26.40;79.70;;;;;;5000488;28;20396;-69
2022/08/01 10:05:06;;;;;;;0.40;0.20;;;26.30;80.60;;;;;;4981898;28;20491;-68
2022/08/01 10:07:33;;;;;;;0.40;0.20;;;26.60;79.70;;;;;;4971077;28;20451;-69
2022/08/01 10:10:15;;;;;;;0.40;0.30;;;26.60;78.30;;;;;;4954627;28;20401;-69
2022/08/01 10:12:43;;;;;;;0.40;0.30;;;26.60;78.60;;;;;;4973312;28;20452;-68
2022/08/01 10:15:10;;;;;;;0.40;0.20;;;26.70;77.10;;;;;;4973561;28;20467;-68
2022/08/01 10:17:39;;;;;;;0.40;0.20;;;26.80;77.00;;;;;;4973448;28;20740;-68
2022/08/01 10:20:06;;;;;;;0.60;0.50;;;26.70;75.70;;;;;;4973490;28;20395;-67
2022/08/01 10:22:34;;;;;;;0.40;0.30;;;27.00;75.20;;;;;;4973060;28;20399;-68
2022/08/01 10:25:03;;;;;;;0.40;0.30;;;26.90;76.10;;;;;;4990173;28;20407;-67
2022/08/01 10:27:32;;;;;;;0.50;0.47;;;27.00;75.40;;;;;;4989469;28;20816;-69
2022/08/01 10:30:03;;;;;;;0.40;0.20;;;26.90;75.30;;;;;;4950981;28;20524;-68
2022/08/01 10:32:34;;;;;;;0.40;0.30;;;27.00;75.90;;;;;;4950530;29;20417;-68
2022/08/01 10:35:01;;;;;;;0.40;0.30;;;27.10;76.10;;;;;;4962349;28;20434;-68
2022/08/01 10:37:27;;;;;;;0.40;0.30;;;27.40;75.20;;;;;;4958512;28;20900;-68
2022/08/01 10:39:54;;;;;;;0.80;0.80;;;27.50;73.40;;;;;;4960879;28;20414;-69
2022/08/01 10:42:20;;;;;;;0.40;0.20;;;27.50;74.10;;;;;;4995730;28;20393;-69
2022/08/01 10:44:47;;;;;;;0.40;0.30;;;27.60;73.60;;;;;;4956460;28;20936;-68
2022/08/01 10:47:23;;;;;;;0.40;0.30;;;27.50;72.10;;;;;;4951460;28;20497;-70
2022/08/01 10:50:01;;;;;;;0.40;0.30;;;27.60;71.40;;;;;;4967115;28;20406;-69
2022/08/01 10:52:27;;;;;;;0.40;0.30;;;27.70;73.30;;;;;;4969465;28;20446;-71
2022/08/01 10:55:09;;;;;;;0.40;0.20;;;27.80;71.30;;;;;;4956326;28;20408;-69
2022/08/01 10:57:45;;;;;;;0.40;0.30;;;27.70;70.50;;;;;;4976368;28;20407;-69
2022/08/01 11:00:19;;;;;;;0.40;0.20;;;27.70;69.60;;;;;;4986375;28;20403;-70
2022/08/01 11:03:03;;;;;;;0.40;0.30;;;27.70;69.20;;;;;;4953288;28;20392;-69
2022/08/01 11:05:34;;;;;;;0.40;0.30;;;27.90;68.50;;;;;;4946161;28;20429;-69
2022/08/01 11:08:20;;;;;;;0.40;0.30;;;28.20;68.50;;;;;;4988753;28;20447;-69
2022/08/01 11:10:47;;;;;;;0.40;0.30;;;28.00;68.80;;;;;;5000845;28;20461;-70
2022/08/01 11:13:13;;;;;;;0.40;0.20;;;28.00;68.60;;;;;;4952635;28;20458;-69
2022/08/01 11:15:41;;;;;;;0.40;0.20;;;28.20;68.00;;;;;;4969558;28;20500;-68
2022/08/01 11:18:30;;;;;;;0.50;0.40;;;28.20;67.70;;;;;;4985150;28;20437;-69
2022/08/01 11:21:01;;;;;;;0.40;0.20;;;28.30;68.20;;;;;;4988936;28;20407;-69
2022/08/01 11:23:28;;;;;;;0.40;0.20;;;28.40;62.70;;;;;;4972501;28;20883;-69
2022/08/01 11:25:54;;;;;;;0.40;0.30;;;28.60;61.90;;;;;;4988709;28;20386;-70
2022/08/01 11:28:23;;;;;;;0.40;0.20;;;28.90;63.00;;;;;;4988305;28;20410;-69
2022/08/01 11:30:52;;;;;;;0.40;0.30;;;29.20;62.50;;;;;;4988275;28;20414;-70
2022/08/01 11:33:39;;;;;;;0.40;0.20;;;29.40;61.10;;;;;;4988141;28;20449;-70
2022/08/01 11:36:11;;;;;;;0.40;0.20;;;29.40;59.40;;;;;;4988406;28;20490;-69
2022/08/01 11:38:39;;;;;;;0.40;0.20;;;29.60;60.10;;;;;;4988216;28;20424;-70
2022/08/01 11:41:16;;;;;;;0.40;0.30;;;29.60;59.20;;;;;;4988226;28;20823;-69
2022/08/01 11:44:08;;;;;;;0.40;0.30;;;30.20;58.20;;;;;;4989071;28;20790;-69
2022/08/01 11:46:56;;;;;;;0.40;0.20;;;30.20;54.80;;;;;;4988191;28;20414;-69
2022/08/01 11:49:45;;;;;;;0.40;0.20;;;30.80;53.60;;;;;;4987851;28;20407;-69
2022/08/01 11:52:32;;;;;;;0.40;0.28;;;31.30;54.10;;;;;;4978011;28;20409;-69
2022/08/01 11:55:00;;;;;;;0.40;0.20;;;31.50;53.80;;;;;;4997676;28;20398;-69
2022/08/01 11:57:33;;;;;;;0.40;0.20;;;32.10;53.10;;;;;;4996547;28;20581;-69
2022/08/01 12:00:00;;;;;;;0.40;0.20;;;32.40;52.10;;;;;;4988224;28;20422;-69
2022/08/01 12:02:28;;;;;;;0.40;0.20;;;32.00;52.60;;;;;;4987696;28;20387;-70
2022/08/01 12:05:00;;;;;;;0.80;0.50;;;31.60;52.00;;;;;;4989516;28;20402;-69
2022/08/01 12:07:28;;;;;;;0.40;0.20;;;31.20;54.40;;;;;;4987711;28;20445;-69
2022/08/01 12:10:02;;;;;;;0.40;0.20;;;30.10;54.30;;;;;;4987666;28;20421;-70
2022/08/01 12:12:29;;;;;;;0.40;0.20;;;31.10;55.20;;;;;;4987659;28;20492;-69
2022/08/01 12:15:03;;;;;;;0.40;0.20;;;32.00;53.30;;;;;;4972309;28;20898;-69
2022/08/01 12:17:29;;;;;;;0.40;0.20;;;32.10;52.00;;;;;;4988002;28;20422;-69
2022/08/01 12:19:55;;;;;;;0.40;0.20;;;30.80;53.10;;;;;;4988239;28;20877;-69
2022/08/01 12:22:23;;;;;;;0.40;0.20;;;29.90;54.90;;;;;;4971869;28;20879;-69
2022/08/01 12:24:48;;;;;;;0.40;0.30;;;31.20;54.40;;;;;;4971750;28;20759;-69
2022/08/01 12:27:30;;;;;;;0.50;0.40;;;32.40;50.90;;;;;;4971294;28;20418;-69
2022/08/01 12:29:58;;;;;;;0.40;0.20;;;32.40;51.50;;;;;;4971739;28;20414;-69
2022/08/01 12:32:36;;;;;;;0.40;0.20;;;32.40;51.40;;;;;;4987527;28;20474;-69
2022/08/01 12:35:23;;;;;;;0.40;0.20;;;32.80;49.80;;;;;;4965445;28;20476;-69
2022/08/01 12:37:51;;;;;;;0.40;0.20;;;33.20;48.70;;;;;;4981492;28;20413;-69
2022/08/01 12:40:19;;;;;;;0.40;0.20;;;31.40;48.70;;;;;;4965059;28;20870;-69
2022/08/01 12:42:47;;;;;;;0.40;0.20;;;31.90;50.00;;;;;;4967000;28;20890;-69
2022/08/01 12:45:17;;;;;;;0.40;0.20;;;32.00;49.20;;;;;;4987273;28;20501;-69
2022/08/01 12:47:44;;;;;;;0.40;0.20;;;30.60;50.70;;;;;;4987256;28;20421;-69
2022/08/01 12:50:18;;;;;;;0.40;0.20;;;31.80;50.80;;;;;;4971103;28;20448;-69
2022/08/01 12:52:44;;;;;;;0.40;0.20;;;32.40;49.00;;;;;;4987923;28;20456;-69
2022/08/01 12:55:13;;;;;;;0.40;0.20;;;32.70;48.70;;;;;;4971252;28;20391;-69
2022/08/01 12:57:42;;;;;;;0.40;0.20;;;33.20;49.70;;;;;;4987262;28;20406;-69